sensor_id;sensor_type;location;lat;lon;timestamp;temperature;humidity
31809;DHT22;18379;48.208;-1.518;2023-12-20T00:01:42;8.40;99.90
31809;DHT22;18379;48.208;-1.518;2023-12-20T00:06:42;8.40;99.90
31809;DHT22;18379;48.208;-1.518;2023-12-20T00:11:43;8.20;99.90
31809;DHT22;18379;48.208;-1.518;2023-12-20T00:16:44;8.10;99.90
31809;DHT22;18379;48.208;-1.518;2023-12-20T00:21:44;8.10;99.90
31809;DHT22;18379;48.208;-1.518;2023-12-20T00:26:45;8.10;99.90
31809;DHT22;18379;48.208;-1.518;2023-12-20T00:31:45;8.30;99.90
31809;DHT22;18379;48.208;-1.518;2023-12-20T00:36:46;8.30;99.90
31809;DHT22;18379;48.208;-1.518;2023-12-20T00:41:47;8.30;99.90
31809;DHT22;18379;48.208;-1.518;2023-12-20T00:46:48;8.30;99.90
31809;DHT22;18379;48.208;-1.518;2023-12-20T00:51:48;8.30;99.90
31809;DHT22;18379;48.208;-1.518;2023-12-20T00:56:50;8.30;99.90
31809;DHT22;18379;48.208;-1.518;2023-12-20T01:01:51;8.20;99.90
31809;DHT22;18379;48.208;-1.518;2023-12-20T01:06:52;8.10;99.90
31809;DHT22;18379;48.208;-1.518;2023-12-20T01:11:53;8.10;99.90
31809;DHT22;18379;48.208;-1.518;2023-12-20T01:16:53;8.00;99.90
31809;DHT22;18379;48.208;-1.518;2023-12-20T01:21:54;7.90;99.90
31809;DHT22;18379;48.208;-1.518;2023-12-20T01:26:55;7.80;99.90
31809;DHT22;18379;48.208;-1.518;2023-12-20T01:31:56;7.80;99.90
31809;DHT22;18379;48.208;-1.518;2023-12-20T01:36:57;7.70;99.90
31809;DHT22;18379;48.208;-1.518;2023-12-20T01:41:57;7.50;99.90
31809;DHT22;18379;48.208;-1.518;2023-12-20T01:46:58;7.40;99.90
31809;DHT22;18379;48.208;-1.518;2023-12-20T01:51:59;7.40;99.90
31809;DHT22;18379;48.208;-1.518;2023-12-20T01:56:59;7.30;99.90
31809;DHT22;18379;48.208;-1.518;2023-12-20T02:02:00;7.30;99.90
31809;DHT22;18379;48.208;-1.518;2023-12-20T02:07:02;7.30;99.90
31809;DHT22;18379;48.208;-1.518;2023-12-20T02:12:04;7.30;99.90
31809;DHT22;18379;48.208;-1.518;2023-12-20T02:17:05;7.30;99.90
31809;DHT22;18379;48.208;-1.518;2023-12-20T02:22:12;7.40;99.90
31809;DHT22;18379;48.208;-1.518;2023-12-20T02:27:13;7.60;99.90
31809;DHT22;18379;48.208;-1.518;2023-12-20T02:32:18;7.60;99.90
31809;DHT22;18379;48.208;-1.518;2023-12-20T02:37:19;7.70;99.90
31809;DHT22;18379;48.208;-1.518;2023-12-20T02:42:20;7.80;99.90
31809;DHT22;18379;48.208;-1.518;2023-12-20T02:47:20;8.00;99.90
31809;DHT22;18379;48.208;-1.518;2023-12-20T02:52:22;8.00;99.90
31809;DHT22;18379;48.208;-1.518;2023-12-20T02:57:23;8.00;99.90
31809;DHT22;18379;48.208;-1.518;2023-12-20T03:02:24;8.00;99.90
31809;DHT22;18379;48.208;-1.518;2023-12-20T03:07:24;7.90;99.90
31809;DHT22;18379;48.208;-1.518;2023-12-20T03:12:25;7.80;99.90
31809;DHT22;18379;48.208;-1.518;2023-12-20T03:17:25;7.70;99.90
31809;DHT22;18379;48.208;-1.518;2023-12-20T03:22:26;7.60;99.90
31809;DHT22;18379;48.208;-1.518;2023-12-20T03:27:27;7.60;99.90
31809;DHT22;18379;48.208;-1.518;2023-12-20T03:32:28;7.50;99.90
31809;DHT22;18379;48.208;-1.518;2023-12-20T03:37:28;7.50;99.90
31809;DHT22;18379;48.208;-1.518;2023-12-20T03:42:29;7.40;99.90
31809;DHT22;18379;48.208;-1.518;2023-12-20T03:47:30;7.30;99.90
31809;DHT22;18379;48.208;-1.518;2023-12-20T03:52:30;7.20;99.90
31809;DHT22;18379;48.208;-1.518;2023-12-20T03:57:31;7.20;99.90
31809;DHT22;18379;48.208;-1.518;2023-12-20T04:02:31;7.20;99.90
31809;DHT22;18379;48.208;-1.518;2023-12-20T04:07:32;7.30;99.90
31809;DHT22;18379;48.208;-1.518;2023-12-20T04:12:33;7.30;99.90
31809;DHT22;18379;48.208;-1.518;2023-12-20T04:17:34;7.30;99.90
31809;DHT22;18379;48.208;-1.518;2023-12-20T04:22:34;7.30;99.90
31809;DHT22;18379;48.208;-1.518;2023-12-20T04:27:35;7.20;99.90
31809;DHT22;18379;48.208;-1.518;2023-12-20T04:32:36;7.30;99.90
31809;DHT22;18379;48.208;-1.518;2023-12-20T04:37:36;7.20;99.90
31809;DHT22;18379;48.208;-1.518;2023-12-20T04:42:37;7.20;99.90
31809;DHT22;18379;48.208;-1.518;2023-12-20T04:47:37;7.10;99.90
31809;DHT22;18379;48.208;-1.518;2023-12-20T04:52:38;7.20;99.90
31809;DHT22;18379;48.208;-1.518;2023-12-20T04:57:39;7.20;99.90
31809;DHT22;18379;48.208;-1.518;2023-12-20T05:02:39;7.30;99.90
31809;DHT22;18379;48.208;-1.518;2023-12-20T05:07:40;7.30;99.90
31809;DHT22;18379;48.208;-1.518;2023-12-20T05:12:41;7.30;99.90
31809;DHT22;18379;48.208;-1.518;2023-12-20T05:17:41;7.30;99.90
31809;DHT22;18379;48.208;-1.518;2023-12-20T05:22:42;7.30;99.90
31809;DHT22;18379;48.208;-1.518;2023-12-20T05:27:43;7.20;99.90
31809;DHT22;18379;48.208;-1.518;2023-12-20T05:32:43;7.20;99.90
31809;DHT22;18379;48.208;-1.518;2023-12-20T05:37:44;7.20;99.90
31809;DHT22;18379;48.208;-1.518;2023-12-20T05:42:45;7.20;99.90
31809;DHT22;18379;48.208;-1.518;2023-12-20T05:47:45;7.10;99.90
31809;DHT22;18379;48.208;-1.518;2023-12-20T05:52:46;7.10;99.90
31809;DHT22;18379;48.208;-1.518;2023-12-20T05:57:46;7.10;99.90
31809;DHT22;18379;48.208;-1.518;2023-12-20T06:02:47;7.00;99.90
31809;DHT22;18379;48.208;-1.518;2023-12-20T06:07:48;7.00;99.90
31809;DHT22;18379;48.208;-1.518;2023-12-20T06:12:50;6.90;99.90
31809;DHT22;18379;48.208;-1.518;2023-12-20T06:17:51;6.90;99.90
31809;DHT22;18379;48.208;-1.518;2023-12-20T06:22:52;6.80;99.90
31809;DHT22;18379;48.208;-1.518;2023-12-20T06:27:52;6.80;99.90
31809;DHT22;18379;48.208;-1.518;2023-12-20T06:32:54;6.80;99.90
31809;DHT22;18379;48.208;-1.518;2023-12-20T06:37:55;6.80;99.90
31809;DHT22;18379;48.208;-1.518;2023-12-20T06:42:55;7.00;99.90
31809;DHT22;18379;48.208;-1.518;2023-12-20T06:47:56;7.10;99.90
31809;DHT22;18379;48.208;-1.518;2023-12-20T06:52:56;7.10;99.90
31809;DHT22;18379;48.208;-1.518;2023-12-20T06:57:57;7.10;99.90
31809;DHT22;18379;48.208;-1.518;2023-12-20T07:02:58;7.10;99.90
31809;DHT22;18379;48.208;-1.518;2023-12-20T07:07:58;7.00;99.90
31809;DHT22;18379;48.208;-1.518;2023-12-20T07:12:59;7.00;99.90
31809;DHT22;18379;48.208;-1.518;2023-12-20T07:18:00;6.90;99.90
31809;DHT22;18379;48.208;-1.518;2023-12-20T07:23:01;7.00;99.90
31809;DHT22;18379;48.208;-1.518;2023-12-20T07:28:01;6.90;99.90
31809;DHT22;18379;48.208;-1.518;2023-12-20T07:33:02;7.00;99.90
31809;DHT22;18379;48.208;-1.518;2023-12-20T07:38:03;6.90;99.90
31809;DHT22;18379;48.208;-1.518;2023-12-20T07:43:04;7.00;99.90
31809;DHT22;18379;48.208;-1.518;2023-12-20T07:48:06;7.00;99.90
31809;DHT22;18379;48.208;-1.518;2023-12-20T07:53:07;6.90;99.90
31809;DHT22;18379;48.208;-1.518;2023-12-20T07:58:08;6.80;99.90
31809;DHT22;18379;48.208;-1.518;2023-12-20T08:03:08;6.80;99.90
31809;DHT22;18379;48.208;-1.518;2023-12-20T08:08:09;6.90;99.90
31809;DHT22;18379;48.208;-1.518;2023-12-20T08:13:09;6.90;99.90
31809;DHT22;18379;48.208;-1.518;2023-12-20T08:18:10;7.00;99.90
31809;DHT22;18379;48.208;-1.518;2023-12-20T08:23:12;6.90;99.90
31809;DHT22;18379;48.208;-1.518;2023-12-20T08:28:12;6.90;99.90
31809;DHT22;18379;48.208;-1.518;2023-12-20T08:33:13;7.00;99.90
31809;DHT22;18379;48.208;-1.518;2023-12-20T08:38:14;7.10;99.90
31809;DHT22;18379;48.208;-1.518;2023-12-20T08:43:14;7.20;99.90
31809;DHT22;18379;48.208;-1.518;2023-12-20T08:48:15;7.20;99.90
31809;DHT22;18379;48.208;-1.518;2023-12-20T08:53:16;7.30;99.90
31809;DHT22;18379;48.208;-1.518;2023-12-20T08:58:17;7.30;99.90
31809;DHT22;18379;48.208;-1.518;2023-12-20T09:03:17;7.40;99.90
31809;DHT22;18379;48.208;-1.518;2023-12-20T09:08:18;7.60;99.90
31809;DHT22;18379;48.208;-1.518;2023-12-20T09:13:19;7.70;99.90
31809;DHT22;18379;48.208;-1.518;2023-12-20T09:18:21;7.90;99.90
31809;DHT22;18379;48.208;-1.518;2023-12-20T09:23:21;7.90;99.90
31809;DHT22;18379;48.208;-1.518;2023-12-20T09:28:23;7.90;99.90
31809;DHT22;18379;48.208;-1.518;2023-12-20T09:33:23;8.00;99.90
31809;DHT22;18379;48.208;-1.518;2023-12-20T09:38:25;8.20;99.90
31809;DHT22;18379;48.208;-1.518;2023-12-20T09:43:26;8.60;99.90
31809;DHT22;18379;48.208;-1.518;2023-12-20T09:48:29;8.90;99.90
31809;DHT22;18379;48.208;-1.518;2023-12-20T09:53:31;9.10;99.90
31809;DHT22;18379;48.208;-1.518;2023-12-20T09:58:36;9.20;99.90
31809;DHT22;18379;48.208;-1.518;2023-12-20T10:03:39;9.40;99.90
31809;DHT22;18379;48.208;-1.518;2023-12-20T10:08:41;9.30;99.90
31809;DHT22;18379;48.208;-1.518;2023-12-20T10:13:42;9.50;99.90
31809;DHT22;18379;48.208;-1.518;2023-12-20T10:18:45;9.60;99.90
31809;DHT22;18379;48.208;-1.518;2023-12-20T10:23:46;9.70;99.90
31809;DHT22;18379;48.208;-1.518;2023-12-20T10:28:50;10.10;99.90
31809;DHT22;18379;48.208;-1.518;2023-12-20T10:33:51;10.30;99.90
31809;DHT22;18379;48.208;-1.518;2023-12-20T10:38:53;10.50;99.90
31809;DHT22;18379;48.208;-1.518;2023-12-20T10:44:05;10.70;99.90
31809;DHT22;18379;48.208;-1.518;2023-12-20T10:49:07;10.90;99.90
31809;DHT22;18379;48.208;-1.518;2023-12-20T10:54:09;10.80;99.90
31809;DHT22;18379;48.208;-1.518;2023-12-20T10:59:11;10.90;99.90
31809;DHT22;18379;48.208;-1.518;2023-12-20T11:04:18;11.20;99.90
31809;DHT22;18379;48.208;-1.518;2023-12-20T11:09:33;11.30;99.90
31809;DHT22;18379;48.208;-1.518;2023-12-20T11:14:51;11.40;99.90
31809;DHT22;18379;48.208;-1.518;2023-12-20T11:24:53;11.60;99.90
31809;DHT22;18379;48.208;-1.518;2023-12-20T11:29:56;11.60;99.90
31809;DHT22;18379;48.208;-1.518;2023-12-20T11:40:14;11.80;99.90
31809;DHT22;18379;48.208;-1.518;2023-12-20T11:45:18;11.80;99.90
31809;DHT22;18379;48.208;-1.518;2023-12-20T11:50:22;11.70;99.90
31809;DHT22;18379;48.208;-1.518;2023-12-20T11:55:23;11.90;99.90
31809;DHT22;18379;48.208;-1.518;2023-12-20T12:00:24;11.80;99.90
31809;DHT22;18379;48.208;-1.518;2023-12-20T12:05:25;12.00;99.90
31809;DHT22;18379;48.208;-1.518;2023-12-20T12:10:26;12.10;99.90
31809;DHT22;18379;48.208;-1.518;2023-12-20T12:15:26;12.30;99.90
31809;DHT22;18379;48.208;-1.518;2023-12-20T12:20:27;12.30;99.90
31809;DHT22;18379;48.208;-1.518;2023-12-20T12:25:29;12.00;99.90
31809;DHT22;18379;48.208;-1.518;2023-12-20T12:30:31;12.10;99.90
31809;DHT22;18379;48.208;-1.518;2023-12-20T12:35:31;11.90;99.90
31809;DHT22;18379;48.208;-1.518;2023-12-20T12:40:34;12.10;99.90
31809;DHT22;18379;48.208;-1.518;2023-12-20T12:45:36;12.10;99.90
31809;DHT22;18379;48.208;-1.518;2023-12-20T12:50:37;11.80;99.90
31809;DHT22;18379;48.208;-1.518;2023-12-20T12:55:37;11.60;99.90
31809;DHT22;18379;48.208;-1.518;2023-12-20T13:00:38;11.70;99.90
31809;DHT22;18379;48.208;-1.518;2023-12-20T13:05:38;12.10;99.90
31809;DHT22;18379;48.208;-1.518;2023-12-20T13:10:39;12.10;99.90
31809;DHT22;18379;48.208;-1.518;2023-12-20T13:15:40;11.90;99.90
31809;DHT22;18379;48.208;-1.518;2023-12-20T13:20:40;11.90;99.90
31809;DHT22;18379;48.208;-1.518;2023-12-20T13:25:41;12.30;99.90
31809;DHT22;18379;48.208;-1.518;2023-12-20T13:30:42;12.60;99.90
31809;DHT22;18379;48.208;-1.518;2023-12-20T13:35:42;12.50;99.90
31809;DHT22;18379;48.208;-1.518;2023-12-20T13:40:43;12.70;99.90
31809;DHT22;18379;48.208;-1.518;2023-12-20T13:45:44;12.80;99.90
31809;DHT22;18379;48.208;-1.518;2023-12-20T13:50:44;12.60;99.90
31809;DHT22;18379;48.208;-1.518;2023-12-20T13:55:45;12.50;99.90
31809;DHT22;18379;48.208;-1.518;2023-12-20T14:00:46;12.30;99.90
31809;DHT22;18379;48.208;-1.518;2023-12-20T14:05:46;12.00;99.90
31809;DHT22;18379;48.208;-1.518;2023-12-20T14:10:47;11.90;99.90
31809;DHT22;18379;48.208;-1.518;2023-12-20T14:15:47;11.80;99.90
31809;DHT22;18379;48.208;-1.518;2023-12-20T14:20:49;11.80;99.90
31809;DHT22;18379;48.208;-1.518;2023-12-20T14:25:51;11.60;99.90
31809;DHT22;18379;48.208;-1.518;2023-12-20T14:30:51;11.60;99.90
31809;DHT22;18379;48.208;-1.518;2023-12-20T14:35:52;11.50;99.90
31809;DHT22;18379;48.208;-1.518;2023-12-20T14:40:53;11.60;99.90
31809;DHT22;18379;48.208;-1.518;2023-12-20T14:45:54;11.60;99.90
31809;DHT22;18379;48.208;-1.518;2023-12-20T14:50:54;11.70;99.90
31809;DHT22;18379;48.208;-1.518;2023-12-20T14:55:55;11.50;99.90
31809;DHT22;18379;48.208;-1.518;2023-12-20T15:00:56;11.40;99.90
31809;DHT22;18379;48.208;-1.518;2023-12-20T15:05:56;11.30;99.90
31809;DHT22;18379;48.208;-1.518;2023-12-20T15:10:59;11.20;99.90
31809;DHT22;18379;48.208;-1.518;2023-12-20T15:15:59;11.30;99.90
31809;DHT22;18379;48.208;-1.518;2023-12-20T15:21:00;11.40;99.90
31809;DHT22;18379;48.208;-1.518;2023-12-20T15:26:00;11.40;99.90
31809;DHT22;18379;48.208;-1.518;2023-12-20T15:31:01;11.40;99.90
31809;DHT22;18379;48.208;-1.518;2023-12-20T15:36:02;11.40;99.90
31809;DHT22;18379;48.208;-1.518;2023-12-20T15:41:03;11.40;99.90
31809;DHT22;18379;48.208;-1.518;2023-12-20T15:46:04;11.40;99.90
31809;DHT22;18379;48.208;-1.518;2023-12-20T15:51:08;11.30;99.90
31809;DHT22;18379;48.208;-1.518;2023-12-20T15:56:09;11.30;99.90
31809;DHT22;18379;48.208;-1.518;2023-12-20T16:01:10;11.20;99.90
31809;DHT22;18379;48.208;-1.518;2023-12-20T16:06:10;11.30;99.90
31809;DHT22;18379;48.208;-1.518;2023-12-20T16:11:11;11.30;99.90
31809;DHT22;18379;48.208;-1.518;2023-12-20T16:16:12;11.20;99.90
31809;DHT22;18379;48.208;-1.518;2023-12-20T16:21:12;11.30;99.90
31809;DHT22;18379;48.208;-1.518;2023-12-20T16:26:13;11.40;99.90
31809;DHT22;18379;48.208;-1.518;2023-12-20T16:31:14;11.40;99.90
31809;DHT22;18379;48.208;-1.518;2023-12-20T16:36:14;11.40;99.90
31809;DHT22;18379;48.208;-1.518;2023-12-20T16:41:15;11.30;99.90
31809;DHT22;18379;48.208;-1.518;2023-12-20T16:46:16;11.30;99.90
31809;DHT22;18379;48.208;-1.518;2023-12-20T16:51:16;11.20;99.90
31809;DHT22;18379;48.208;-1.518;2023-12-20T16:56:17;11.10;99.90
31809;DHT22;18379;48.208;-1.518;2023-12-20T17:01:17;11.00;99.90
31809;DHT22;18379;48.208;-1.518;2023-12-20T17:06:18;11.00;99.90
31809;DHT22;18379;48.208;-1.518;2023-12-20T17:11:19;11.00;99.90
31809;DHT22;18379;48.208;-1.518;2023-12-20T17:16:21;11.10;99.90
31809;DHT22;18379;48.208;-1.518;2023-12-20T17:21:22;11.20;99.90
31809;DHT22;18379;48.208;-1.518;2023-12-20T17:26:23;11.20;99.90
31809;DHT22;18379;48.208;-1.518;2023-12-20T17:31:23;11.30;99.90
31809;DHT22;18379;48.208;-1.518;2023-12-20T17:36:24;11.30;99.90
31809;DHT22;18379;48.208;-1.518;2023-12-20T17:41:24;11.40;99.90
31809;DHT22;18379;48.208;-1.518;2023-12-20T17:46:25;11.40;99.90
31809;DHT22;18379;48.208;-1.518;2023-12-20T17:51:26;11.30;99.90
31809;DHT22;18379;48.208;-1.518;2023-12-20T17:56:28;11.10;99.90
31809;DHT22;18379;48.208;-1.518;2023-12-20T18:01:29;11.10;99.90
31809;DHT22;18379;48.208;-1.518;2023-12-20T18:06:30;11.00;99.90
31809;DHT22;18379;48.208;-1.518;2023-12-20T18:11:31;10.90;99.90
31809;DHT22;18379;48.208;-1.518;2023-12-20T18:16:31;10.90;99.90
31809;DHT22;18379;48.208;-1.518;2023-12-20T18:21:32;10.90;99.90
31809;DHT22;18379;48.208;-1.518;2023-12-20T18:26:33;10.80;99.90
31809;DHT22;18379;48.208;-1.518;2023-12-20T18:31:36;10.80;99.90
31809;DHT22;18379;48.208;-1.518;2023-12-20T18:36:36;10.80;99.90
31809;DHT22;18379;48.208;-1.518;2023-12-20T18:41:37;10.70;99.90
31809;DHT22;18379;48.208;-1.518;2023-12-20T18:46:39;10.70;99.90
31809;DHT22;18379;48.208;-1.518;2023-12-20T18:51:40;10.70;99.90
31809;DHT22;18379;48.208;-1.518;2023-12-20T18:56:40;10.70;99.90
31809;DHT22;18379;48.208;-1.518;2023-12-20T19:01:43;10.70;99.90
31809;DHT22;18379;48.208;-1.518;2023-12-20T19:06:43;10.70;99.90
31809;DHT22;18379;48.208;-1.518;2023-12-20T19:11:44;10.60;99.90
31809;DHT22;18379;48.208;-1.518;2023-12-20T19:16:45;10.60;99.90
31809;DHT22;18379;48.208;-1.518;2023-12-20T19:21:45;10.60;99.90
31809;DHT22;18379;48.208;-1.518;2023-12-20T19:26:46;10.50;99.90
31809;DHT22;18379;48.208;-1.518;2023-12-20T19:31:47;10.40;99.90
31809;DHT22;18379;48.208;-1.518;2023-12-20T19:36:48;10.40;99.90
31809;DHT22;18379;48.208;-1.518;2023-12-20T19:41:48;10.40;99.90
31809;DHT22;18379;48.208;-1.518;2023-12-20T19:46:49;10.50;99.90
31809;DHT22;18379;48.208;-1.518;2023-12-20T19:51:50;10.50;99.90
31809;DHT22;18379;48.208;-1.518;2023-12-20T19:56:53;10.50;99.90
31809;DHT22;18379;48.208;-1.518;2023-12-20T20:01:54;10.40;99.90
31809;DHT22;18379;48.208;-1.518;2023-12-20T20:06:56;10.40;99.90
31809;DHT22;18379;48.208;-1.518;2023-12-20T20:11:56;10.40;99.90
31809;DHT22;18379;48.208;-1.518;2023-12-20T20:16:57;10.40;99.90
31809;DHT22;18379;48.208;-1.518;2023-12-20T20:22:00;10.40;99.90
31809;DHT22;18379;48.208;-1.518;2023-12-20T20:27:00;10.40;99.90
31809;DHT22;18379;48.208;-1.518;2023-12-20T20:32:01;10.40;99.90
31809;DHT22;18379;48.208;-1.518;2023-12-20T20:37:02;10.30;99.90
31809;DHT22;18379;48.208;-1.518;2023-12-20T20:42:03;10.30;99.90
31809;DHT22;18379;48.208;-1.518;2023-12-20T20:47:04;10.30;99.90
31809;DHT22;18379;48.208;-1.518;2023-12-20T20:52:04;10.20;99.90
31809;DHT22;18379;48.208;-1.518;2023-12-20T20:57:05;10.20;99.90
31809;DHT22;18379;48.208;-1.518;2023-12-20T21:02:06;10.10;99.90
31809;DHT22;18379;48.208;-1.518;2023-12-20T21:07:06;10.20;99.90
31809;DHT22;18379;48.208;-1.518;2023-12-20T21:12:07;10.20;99.90
31809;DHT22;18379;48.208;-1.518;2023-12-20T21:17:08;10.10;99.90
31809;DHT22;18379;48.208;-1.518;2023-12-20T21:22:08;10.20;99.90
31809;DHT22;18379;48.208;-1.518;2023-12-20T21:27:09;10.20;99.90
31809;DHT22;18379;48.208;-1.518;2023-12-20T21:32:10;10.30;99.90
31809;DHT22;18379;48.208;-1.518;2023-12-20T21:37:10;10.20;99.90
31809;DHT22;18379;48.208;-1.518;2023-12-20T21:42:11;10.20;99.90
31809;DHT22;18379;48.208;-1.518;2023-12-20T21:47:13;10.20;99.90
31809;DHT22;18379;48.208;-1.518;2023-12-20T21:52:13;10.20;99.90
31809;DHT22;18379;48.208;-1.518;2023-12-20T21:57:15;10.20;99.90
31809;DHT22;18379;48.208;-1.518;2023-12-20T22:02:15;10.20;99.90
31809;DHT22;18379;48.208;-1.518;2023-12-20T22:07:16;10.30;99.90
31809;DHT22;18379;48.208;-1.518;2023-12-20T22:12:17;10.30;99.90
31809;DHT22;18379;48.208;-1.518;2023-12-20T22:17:17;10.30;99.90
31809;DHT22;18379;48.208;-1.518;2023-12-20T22:22:18;10.30;99.90
31809;DHT22;18379;48.208;-1.518;2023-12-20T22:27:19;10.30;99.90
31809;DHT22;18379;48.208;-1.518;2023-12-20T22:32:20;10.20;99.90
31809;DHT22;18379;48.208;-1.518;2023-12-20T22:37:20;10.20;99.90
31809;DHT22;18379;48.208;-1.518;2023-12-20T22:42:21;10.20;99.90
31809;DHT22;18379;48.208;-1.518;2023-12-20T22:47:22;10.20;99.90
31809;DHT22;18379;48.208;-1.518;2023-12-20T22:52:24;10.10;99.90
31809;DHT22;18379;48.208;-1.518;2023-12-20T22:57:24;10.20;99.90
31809;DHT22;18379;48.208;-1.518;2023-12-20T23:02:25;10.20;99.90
31809;DHT22;18379;48.208;-1.518;2023-12-20T23:07:26;10.20;99.90
31809;DHT22;18379;48.208;-1.518;2023-12-20T23:12:27;10.20;99.90
31809;DHT22;18379;48.208;-1.518;2023-12-20T23:17:27;10.20;99.90
31809;DHT22;18379;48.208;-1.518;2023-12-20T23:22:28;10.10;99.90
31809;DHT22;18379;48.208;-1.518;2023-12-20T23:27:29;10.10;99.90
31809;DHT22;18379;48.208;-1.518;2023-12-20T23:32:29;10.00;99.90
31809;DHT22;18379;48.208;-1.518;2023-12-20T23:37:30;10.10;99.90
31809;DHT22;18379;48.208;-1.518;2023-12-20T23:42:31;10.10;99.90
31809;DHT22;18379;48.208;-1.518;2023-12-20T23:47:31;10.10;99.90
31809;DHT22;18379;48.208;-1.518;2023-12-20T23:52:32;10.20;99.90
31809;DHT22;18379;48.208;-1.518;2023-12-20T23:57:33;10.20;99.90
